createdAt,value
2022-10-18T00:00:34.683Z,19.44
2022-10-18T00:03:37.247Z,19.39
2022-10-18T00:06:41.208Z,19.35
2022-10-18T00:09:44.930Z,19.31
2022-10-18T00:15:56.737Z,19.14
2022-10-18T00:18:58.302Z,19.14
2022-10-18T00:21:59.763Z,19.11
2022-10-18T00:25:01.248Z,19.12
2022-10-18T00:28:02.761Z,19.10
2022-10-18T00:31:29.318Z,19.18
2022-10-18T00:34:30.747Z,19.18
2022-10-18T00:37:33.135Z,19.16
2022-10-18T00:40:34.589Z,19.05
2022-10-18T00:43:54.112Z,18.91
2022-10-18T00:46:59.479Z,18.78
2022-10-18T00:50:04.423Z,18.62
2022-10-18T00:53:11.793Z,18.49
2022-10-18T00:56:13.563Z,18.56
2022-10-18T00:59:16.981Z,18.50
2022-10-18T01:02:18.740Z,18.48
2022-10-18T01:05:20.783Z,18.30
2022-10-18T01:08:43.340Z,18.29
2022-10-18T01:12:32.996Z,18.18
2022-10-18T01:15:50.518Z,18.10
2022-10-18T01:19:01.454Z,18.04
2022-10-18T01:22:13.416Z,18.09
2022-10-18T01:25:28.400Z,18.18
2022-10-18T01:29:02.146Z,18.29
2022-10-18T01:32:07.267Z,18.28
2022-10-18T01:35:14.713Z,18.33
2022-10-18T01:38:19.326Z,18.37
2022-10-18T01:41:24.017Z,18.39
2022-10-18T01:44:29.514Z,18.35
2022-10-18T01:47:31.665Z,18.35
2022-10-18T01:50:34.794Z,18.28
2022-10-18T01:53:36.225Z,18.23
2022-10-18T01:56:54.167Z,17.83
2022-10-18T02:00:04.429Z,17.81
2022-10-18T02:03:25.776Z,17.67
2022-10-18T02:06:31.752Z,17.54
2022-10-18T02:09:41.936Z,17.49
2022-10-18T02:12:46.661Z,17.43
2022-10-18T02:15:54.595Z,17.48
2022-10-18T02:19:00.504Z,17.42
2022-10-18T02:22:03.211Z,17.45
2022-10-18T02:25:10.319Z,17.43
2022-10-18T02:28:11.798Z,17.53
2022-10-18T02:31:20.385Z,17.52
2022-10-18T02:34:27.818Z,17.57
2022-10-18T02:37:33.372Z,17.46
2022-10-18T02:40:34.862Z,17.32
2022-10-18T02:43:36.350Z,17.23
2022-10-18T02:46:39.137Z,17.14
2022-10-18T02:49:40.718Z,17.02
2022-10-18T02:52:42.131Z,17.09
2022-10-18T02:55:43.595Z,17.17
2022-10-18T02:58:45.010Z,17.11
2022-10-18T03:01:46.477Z,17.13
2022-10-18T03:04:47.895Z,17.10
2022-10-18T03:07:49.278Z,17.04
2022-10-18T03:10:50.768Z,17.01
2022-10-18T03:13:52.256Z,16.95
2022-10-18T03:16:53.807Z,16.89
2022-10-18T03:19:55.338Z,16.90
2022-10-18T03:22:56.746Z,16.86
2022-10-18T03:25:58.162Z,16.95
2022-10-18T03:29:00.037Z,17.16
2022-10-18T03:32:01.593Z,17.30
2022-10-18T03:35:03.071Z,17.41
2022-10-18T03:38:04.661Z,17.32
2022-10-18T03:41:06.246Z,17.29
2022-10-18T03:44:07.657Z,17.51
2022-10-18T03:47:09.042Z,17.53
2022-10-18T03:50:10.428Z,17.54
2022-10-18T03:53:12.079Z,17.50
2022-10-18T03:56:13.528Z,17.52
2022-10-18T03:59:16.976Z,17.35
2022-10-18T04:02:18.695Z,17.32
2022-10-18T04:05:20.267Z,17.22
2022-10-18T04:08:21.843Z,17.28
2022-10-18T04:11:23.220Z,17.24
2022-10-18T04:14:24.654Z,17.13
2022-10-18T04:17:26.170Z,17.08
2022-10-18T04:20:27.975Z,16.99
2022-10-18T04:23:31.785Z,16.84
2022-10-18T04:26:36.410Z,16.92
2022-10-18T04:29:37.827Z,16.69
2022-10-18T04:32:39.308Z,16.72
2022-10-18T04:35:40.713Z,16.83
2022-10-18T04:38:42.141Z,16.89
2022-10-18T04:41:43.683Z,16.70
2022-10-18T04:44:45.226Z,16.67
2022-10-18T04:47:46.650Z,16.80
2022-10-18T04:50:49.740Z,17.02
2022-10-18T04:53:51.182Z,17.13
2022-10-18T04:56:52.616Z,17.20
2022-10-18T04:59:54.012Z,17.22
2022-10-18T05:02:58.671Z,17.36
2022-10-18T05:06:02.705Z,17.40
2022-10-18T05:09:04.949Z,17.37
2022-10-18T05:12:06.320Z,17.43
2022-10-18T05:15:08.103Z,17.41
2022-10-18T05:18:09.524Z,17.36
2022-10-18T05:21:12.430Z,17.30
2022-10-18T05:24:13.874Z,17.34
2022-10-18T05:27:15.260Z,17.12
2022-10-18T05:30:16.852Z,17.10
2022-10-18T05:33:18.282Z,17.22
2022-10-18T05:36:19.711Z,17.25
2022-10-18T05:39:21.157Z,17.30
2022-10-18T05:42:22.542Z,17.43
2022-10-18T05:45:24.103Z,17.41
2022-10-18T05:48:25.580Z,17.31
2022-10-18T05:51:26.970Z,17.20
2022-10-18T05:54:28.571Z,17.13
2022-10-18T05:57:30.316Z,17.17
2022-10-18T06:00:32.062Z,17.21
2022-10-18T06:03:33.932Z,17.29
2022-10-18T06:06:36.408Z,17.34
2022-10-18T06:09:38.342Z,17.33
2022-10-18T06:12:39.748Z,17.30
2022-10-18T06:15:41.145Z,17.41
2022-10-18T06:18:42.799Z,17.50
2022-10-18T06:21:44.450Z,17.56
2022-10-18T06:24:45.864Z,17.60
2022-10-18T06:27:47.267Z,17.64
2022-10-18T06:30:48.726Z,17.70
2022-10-18T06:33:50.668Z,17.65
2022-10-18T06:36:55.029Z,17.73
2022-10-18T06:39:59.566Z,17.72
2022-10-18T06:43:19.545Z,17.64
2022-10-18T06:46:22.454Z,17.62
2022-10-18T06:49:24.031Z,17.64
2022-10-18T06:52:25.958Z,17.77
2022-10-18T06:55:27.380Z,17.72
2022-10-18T06:58:30.032Z,17.76
2022-10-18T07:01:32.510Z,17.78
2022-10-18T07:04:34.250Z,17.80
2022-10-18T07:07:35.862Z,17.82
2022-10-18T07:10:37.551Z,17.82
2022-10-18T07:13:39.143Z,17.81
2022-10-18T07:16:40.739Z,17.80
2022-10-18T07:19:42.211Z,17.82
2022-10-18T07:22:43.632Z,17.91
2022-10-18T07:25:45.113Z,18.06
2022-10-18T07:28:49.406Z,18.09
2022-10-18T07:31:50.868Z,18.08
2022-10-18T07:34:52.310Z,18.25
2022-10-18T07:37:53.800Z,18.25
2022-10-18T07:40:59.640Z,18.33
2022-10-18T07:44:02.391Z,18.41
2022-10-18T07:47:03.821Z,18.40
2022-10-18T07:50:05.878Z,18.52
2022-10-18T07:53:07.179Z,18.65
2022-10-18T07:56:15.962Z,18.61
2022-10-18T07:59:17.479Z,18.55
2022-10-18T08:02:18.920Z,18.58
2022-10-18T08:05:20.372Z,18.56
2022-10-18T08:08:23.790Z,18.66
2022-10-18T08:11:25.687Z,18.69
2022-10-18T08:14:27.102Z,18.59
2022-10-18T08:17:28.721Z,18.54
2022-10-18T08:20:31.945Z,18.79
2022-10-18T08:23:33.875Z,18.99
2022-10-18T08:26:35.299Z,18.98
2022-10-18T08:29:36.756Z,19.20
2022-10-18T08:32:38.203Z,19.70
2022-10-18T08:35:39.702Z,19.91
2022-10-18T08:38:42.236Z,20.31
2022-10-18T08:41:58.653Z,20.10
2022-10-18T08:45:08.167Z,20.36
2022-10-18T08:48:34.261Z,20.85
2022-10-18T08:51:42.352Z,20.93
2022-10-18T08:54:55.591Z,21.23
2022-10-18T08:57:58.144Z,21.40
2022-10-18T09:01:39.389Z,21.47
2022-10-18T09:04:54.317Z,21.60
2022-10-18T09:08:14.218Z,21.61
2022-10-18T09:11:47.247Z,21.71
2022-10-18T09:15:07.445Z,21.91
2022-10-18T09:18:37.470Z,21.95
2022-10-18T09:21:52.489Z,22.35
2022-10-18T09:25:06.193Z,22.69
2022-10-18T09:28:16.870Z,22.40
2022-10-18T09:31:21.411Z,21.90
2022-10-18T09:34:40.649Z,22.01
2022-10-18T09:37:43.887Z,22.08
2022-10-18T09:40:55.864Z,21.68
2022-10-18T09:44:01.631Z,21.36
2022-10-18T09:47:16.480Z,21.29
2022-10-18T09:50:27.601Z,21.21
2022-10-18T09:53:47.539Z,21.29
2022-10-18T09:59:57.838Z,21.60
2022-10-18T10:03:01.197Z,21.41
2022-10-18T10:06:11.605Z,21.36
2022-10-18T10:09:18.241Z,21.00
2022-10-18T10:12:29.829Z,22.17
2022-10-18T10:15:36.961Z,23.14
2022-10-18T10:18:41.245Z,23.02
2022-10-18T10:21:42.601Z,23.04
2022-10-18T10:24:48.716Z,23.42
2022-10-18T10:27:50.714Z,23.86
2022-10-18T10:30:52.181Z,23.76
2022-10-18T10:33:59.560Z,24.03
2022-10-18T10:37:00.987Z,23.87
2022-10-18T10:40:19.257Z,24.33
2022-10-18T10:43:45.541Z,24.18
2022-10-18T10:46:50.291Z,23.77
2022-10-18T10:49:51.741Z,24.59
2022-10-18T10:52:54.574Z,24.97
2022-10-18T10:55:59.040Z,24.73
2022-10-18T10:59:18.933Z,24.09
2022-10-18T11:02:31.118Z,24.50
2022-10-18T11:05:42.982Z,25.16
2022-10-18T11:12:12.172Z,25.19
2022-10-18T11:15:36.412Z,24.99
2022-10-18T11:18:37.915Z,24.79
2022-10-18T11:21:40.784Z,24.87
2022-10-18T11:24:42.531Z,24.65
2022-10-18T11:27:43.798Z,24.24
2022-10-18T11:31:17.375Z,23.66
2022-10-18T11:34:27.832Z,23.86
2022-10-18T11:37:59.549Z,23.82
2022-10-18T11:41:14.296Z,23.71
2022-10-18T11:44:21.892Z,23.53
2022-10-18T11:47:52.267Z,23.30
2022-10-18T11:51:09.583Z,23.57
2022-10-18T11:54:20.171Z,23.51
2022-10-18T11:57:51.866Z,23.67
2022-10-18T12:01:18.060Z,23.49
2022-10-18T12:04:32.394Z,23.44
2022-10-18T12:07:39.929Z,23.61
2022-10-18T12:11:04.031Z,23.70
2022-10-18T12:14:20.479Z,23.74
2022-10-18T12:17:51.241Z,23.88
2022-10-18T12:20:56.493Z,23.69
2022-10-18T12:24:22.123Z,23.33
2022-10-18T12:27:39.516Z,23.21
2022-10-18T12:31:09.761Z,23.19
2022-10-18T12:34:23.436Z,22.95
2022-10-18T12:37:54.393Z,22.93
2022-10-18T12:40:57.388Z,23.06
2022-10-18T12:44:21.167Z,22.92
2022-10-18T12:47:25.591Z,23.01
2022-10-18T12:50:39.018Z,23.11
2022-10-18T12:53:42.174Z,23.18
2022-10-18T12:56:44.317Z,23.29
2022-10-18T12:59:45.732Z,23.46
2022-10-18T13:03:10.720Z,23.35
2022-10-18T13:06:12.300Z,23.15
2022-10-18T13:09:19.774Z,23.07
2022-10-18T13:12:21.216Z,23.13
2022-10-18T13:15:46.425Z,23.07
2022-10-18T13:18:50.779Z,23.24
2022-10-18T13:22:10.941Z,23.30
2022-10-18T13:25:26.234Z,23.34
2022-10-18T13:28:46.029Z,23.56
2022-10-18T13:32:07.601Z,23.27
2022-10-18T13:35:43.674Z,23.18
2022-10-18T13:38:55.509Z,23.19
2022-10-18T13:41:57.720Z,23.24
2022-10-18T13:45:43.177Z,23.45
2022-10-18T13:48:46.737Z,23.44
2022-10-18T13:52:06.856Z,23.13
2022-10-18T13:55:38.293Z,23.02
2022-10-18T13:59:21.760Z,22.98
2022-10-18T14:02:51.452Z,23.05
2022-10-18T14:06:15.764Z,23.02
2022-10-18T14:09:43.651Z,23.26
2022-10-18T14:12:54.570Z,23.32
2022-10-18T14:16:05.794Z,23.26
2022-10-18T14:19:25.287Z,23.26
2022-10-18T14:22:35.542Z,23.26
2022-10-18T14:25:38.190Z,23.26
2022-10-18T14:28:58.660Z,23.04
2022-10-18T14:32:01.035Z,23.16
2022-10-18T14:35:31.037Z,23.15
2022-10-18T14:38:24.528Z,23.25
2022-10-18T14:41:37.445Z,23.01
2022-10-18T14:44:38.877Z,22.73
2022-10-18T14:47:40.307Z,22.82
2022-10-18T14:50:47.385Z,22.87
2022-10-18T14:53:49.215Z,22.95
2022-10-18T14:56:50.595Z,23.01
2022-10-18T14:59:56.903Z,22.95
2022-10-18T15:02:58.603Z,22.69
2022-10-18T15:06:05.095Z,22.63
2022-10-18T15:09:06.784Z,22.68
2022-10-18T15:12:11.723Z,22.75
2022-10-18T15:15:28.644Z,22.76
2022-10-18T15:21:36.042Z,22.64
2022-10-18T15:24:40.176Z,22.67
2022-10-18T15:27:45.249Z,22.55
2022-10-18T15:30:47.036Z,22.47
2022-10-18T15:33:48.890Z,22.37
2022-10-18T15:36:52.852Z,22.39
2022-10-18T15:40:16.648Z,22.48
2022-10-18T15:43:24.107Z,22.42
2022-10-18T15:46:31.938Z,22.39
2022-10-18T15:49:51.065Z,22.38
2022-10-18T15:52:52.477Z,22.37
2022-10-18T15:55:58.608Z,22.21
2022-10-18T15:59:03.978Z,22.20
2022-10-18T16:02:13.144Z,22.21
2022-10-18T16:05:18.471Z,22.12
2022-10-18T16:08:23.364Z,22.14
2022-10-18T16:11:29.918Z,22.08
2022-10-18T16:14:35.319Z,22.06
2022-10-18T16:17:37.609Z,21.97
2022-10-18T16:20:43.338Z,21.97
2022-10-18T16:24:02.930Z,21.92
2022-10-18T16:27:13.421Z,21.85
2022-10-18T16:30:21.591Z,21.83
2022-10-18T16:33:30.082Z,21.82
2022-10-18T16:36:52.626Z,21.77
2022-10-18T16:39:54.056Z,21.74
2022-10-18T16:42:55.433Z,21.67
2022-10-18T16:45:57.031Z,21.68
2022-10-18T16:48:59.342Z,21.60
2022-10-18T16:52:00.780Z,21.49
2022-10-18T16:55:02.265Z,21.39
2022-10-18T16:58:04.067Z,21.37
2022-10-18T17:01:08.119Z,21.33
2022-10-18T17:04:10.505Z,21.26
2022-10-18T17:07:25.202Z,21.22
2022-10-18T17:10:27.603Z,20.95
2022-10-18T17:13:29.030Z,20.83
2022-10-18T17:16:35.315Z,20.90
2022-10-18T17:19:36.781Z,20.81
2022-10-18T17:22:38.274Z,20.81
2022-10-18T17:25:52.733Z,20.76
2022-10-18T17:29:08.124Z,20.77
2022-10-18T17:32:09.837Z,20.74
2022-10-18T17:35:11.954Z,20.47
2022-10-18T17:38:13.339Z,20.49
2022-10-18T17:41:14.777Z,20.26
2022-10-18T17:44:16.335Z,20.03
2022-10-18T17:47:17.715Z,20.05
2022-10-18T17:50:19.132Z,20.12
2022-10-18T17:53:23.196Z,20.20
2022-10-18T17:56:27.077Z,20.10
2022-10-18T17:59:28.855Z,20.00
2022-10-18T18:02:30.481Z,19.98
2022-10-18T18:05:33.820Z,19.96
2022-10-18T18:08:35.209Z,19.94
2022-10-18T18:11:38.677Z,19.88
2022-10-18T18:14:40.223Z,19.84
2022-10-18T18:17:57.926Z,19.90
2022-10-18T18:20:59.912Z,19.93
2022-10-18T18:24:01.719Z,19.71
2022-10-18T18:27:03.354Z,19.63
2022-10-18T18:30:06.912Z,19.73
2022-10-18T18:33:11.622Z,19.45
2022-10-18T18:36:13.354Z,19.54
2022-10-18T18:39:24.822Z,19.62
2022-10-18T18:42:26.483Z,19.57
2022-10-18T18:45:29.375Z,19.42
2022-10-18T18:48:32.614Z,19.28
2022-10-18T18:51:37.475Z,19.33
2022-10-18T18:54:39.120Z,19.31
2022-10-18T18:57:40.870Z,19.15
2022-10-18T19:00:44.544Z,19.12
2022-10-18T19:03:48.578Z,19.04
2022-10-18T19:06:50.104Z,18.79
2022-10-18T19:09:52.131Z,18.84
2022-10-18T19:12:54.039Z,18.64
2022-10-18T19:16:20.422Z,18.31
2022-10-18T19:19:24.146Z,18.07
2022-10-18T19:22:25.698Z,18.00
2022-10-18T19:25:27.453Z,18.13
2022-10-18T19:28:29.312Z,18.15
2022-10-18T19:31:30.975Z,18.12
2022-10-18T19:34:34.533Z,18.27
2022-10-18T19:37:36.185Z,18.32
2022-10-18T19:40:37.967Z,18.46
2022-10-18T19:43:39.631Z,18.25
2022-10-18T19:46:41.373Z,18.19
2022-10-18T19:49:43.109Z,18.36
2022-10-18T19:52:44.636Z,17.98
2022-10-18T19:55:46.076Z,17.80
2022-10-18T19:58:48.236Z,18.01
2022-10-18T20:01:49.962Z,18.12
2022-10-18T20:04:51.521Z,18.13
2022-10-18T20:07:52.929Z,18.03
2022-10-18T20:10:54.923Z,18.02
2022-10-18T20:13:56.908Z,17.94
2022-10-18T20:16:58.328Z,17.97
2022-10-18T20:19:59.899Z,17.89
2022-10-18T20:23:01.318Z,17.97
2022-10-18T20:26:04.428Z,17.73
2022-10-18T20:29:07.422Z,17.44
2022-10-18T20:32:09.213Z,17.50
2022-10-18T20:35:10.779Z,17.58
2022-10-18T20:38:12.215Z,17.34
2022-10-18T20:41:22.982Z,17.34
2022-10-18T20:44:26.585Z,17.56
2022-10-18T20:47:27.972Z,17.26
2022-10-18T20:50:29.399Z,17.29
2022-10-18T20:53:30.915Z,17.47
2022-10-18T20:56:34.193Z,17.43
2022-10-18T20:59:36.654Z,17.13
2022-10-18T21:02:38.567Z,17.16
2022-10-18T21:05:39.983Z,17.36
2022-10-18T21:08:42.387Z,17.35
2022-10-18T21:11:46.226Z,17.42
2022-10-18T21:14:47.758Z,17.41
2022-10-18T21:17:51.081Z,17.31
2022-10-18T21:20:53.414Z,17.32
2022-10-18T21:23:54.817Z,17.25
2022-10-18T21:26:56.749Z,17.23
2022-10-18T21:29:58.222Z,17.15
2022-10-18T21:32:59.614Z,17.14
2022-10-18T21:36:01.751Z,17.14
2022-10-18T21:39:08.714Z,17.14
2022-10-18T21:42:10.291Z,17.14
2022-10-18T21:45:11.658Z,17.11
2022-10-18T21:48:13.085Z,17.05
2022-10-18T21:51:20.152Z,16.93
2022-10-18T21:54:21.587Z,16.63
2022-10-18T21:57:23.123Z,16.74
2022-10-18T22:00:24.781Z,16.78
2022-10-18T22:03:26.425Z,16.90
2022-10-18T22:06:32.008Z,16.92
2022-10-18T22:09:33.750Z,16.91
2022-10-18T22:12:35.349Z,16.91
2022-10-18T22:18:44.754Z,16.84
2022-10-18T22:21:46.656Z,16.90
2022-10-18T22:24:48.109Z,16.83
2022-10-18T22:27:49.727Z,16.81
2022-10-18T22:30:51.213Z,16.83
2022-10-18T22:33:58.875Z,16.40
2022-10-18T22:37:00.564Z,16.48
2022-10-18T22:40:02.135Z,16.38
2022-10-18T22:43:03.821Z,16.23
2022-10-18T22:46:07.935Z,16.24
2022-10-18T22:49:10.481Z,16.27
2022-10-18T22:52:12.168Z,16.26
2022-10-18T22:55:13.864Z,16.16
2022-10-18T22:58:15.649Z,16.27
2022-10-18T23:01:20.397Z,16.22
2022-10-18T23:04:21.919Z,16.00
2022-10-18T23:07:23.407Z,16.29
2022-10-18T23:10:24.875Z,16.27
2022-10-18T23:13:28.221Z,16.26
2022-10-18T23:16:29.946Z,16.43
2022-10-18T23:19:31.394Z,16.36
2022-10-18T23:22:33.133Z,16.19
2022-10-18T23:25:36.612Z,16.26
2022-10-18T23:28:40.196Z,16.21
2022-10-18T23:31:41.767Z,16.12
2022-10-18T23:34:43.181Z,16.10
2022-10-18T23:37:44.578Z,16.42
2022-10-18T23:40:46.001Z,16.47
2022-10-18T23:43:47.838Z,16.53
2022-10-18T23:46:49.272Z,16.41
2022-10-18T23:49:50.747Z,16.38
2022-10-18T23:52:52.161Z,16.41
2022-10-18T23:55:57.904Z,16.42
2022-10-18T23:58:59.417Z,16.23
